Flight Track Log - Related Links

Times and Time Zones

All times are in EDT time to prevent confusion due to time zone crossing. See the DAL924 flight status page for this flight to view local times or setup timezone preferences in your user account.

Time Position Orientation Groundspeed Altitude Reporting Facility
EDT Latitude Longitude Course Direction KTS MPH feet Rate Location/Type
Sun 12:28:48 PM 42.8153 -85.5064 191° South 209 241 2,700  Level Chicago Center
Sun 12:29:50 PM 42.7322 -85.4983 176° South 241 277 6,400 3,000 Climbing Chicago Center
Sun 12:30:00 PM 42.5734 -85.4814 180° South  Level Estimated
Sun 12:30:52 PM 42.6589 -85.4978 180° South 256 295 8,900  Level Chicago Center
Sun 12:31:00 PM 42.4709 -85.4677 180° South  Level Estimated
Sun 12:31:54 PM 42.5808 -85.4986 180° South 274 315 10,900  Level Chicago Center
Sun 12:32:00 PM 42.3684 -85.4541 180° South  Level Estimated
Sun 12:32:56 PM 42.4878 -85.4992 180° South 323 372 12,100  Level Chicago Center
Sun 12:33:00 PM 42.2659 -85.4405 180° South  Level Estimated
Sun 12:33:58 PM 42.3828 -85.5017 181° South 366 421 14,000  Level Chicago Center
Sun 12:34:00 PM 42.1647 -85.4664 191° South  Level FlightAware Approximate
Sun 12:35:00 PM 42.2764 -85.5039 181° South 381 438 16,100  Level Chicago Center
Sun 12:36:02 PM 42.1431 -85.5072 181° South 399 459 18,100 1,742 Climbing Chicago Center
Sun 12:37:04 PM 42.0308 -85.5108 181° South 404 465 19,700 1,500 Climbing Chicago Center
Sun 12:38:06 PM 41.9261 -85.5119 180° South 414 476 21,200 1,500 Climbing Chicago Center
Sun 12:39:08 PM 41.7850 -85.5156 181° South 424 488 22,800 1,452 Climbing Chicago Center
Sun 12:40:10 PM 41.6661 -85.5186 181° South 436 502 24,200 1,452 Climbing Chicago Center
Sun 12:41:12 PM 41.5469 -85.5219 181° South 445 512 25,800 1,645 Climbing Chicago Center
Sun 12:42:14 PM 41.4297 -85.5217 180° South 428 493 27,600 1,790 Climbing Chicago Center
Sun 12:43:16 PM 41.2911 -85.5322 183° South 417 480 29,500 1,296 Climbing Chicago Center
Sun 12:44:19 PM 41.1781 -85.5578 190° South 413 475 30,300 864 Climbing Chicago Center
Sun 12:45:21 PM 41.0642 -85.5842 190° South 414 476 31,300 919 Climbing Chicago Center
Sun 12:46:23 PM 40.9525 -85.6069 189° South 409 471 32,200 677 Climbing Chicago Center
Sun 12:47:25 PM 40.8431 -85.6317 190° South 403 464 32,700 774 Climbing Chicago Center
Sun 12:48:27 PM 40.7331 -85.6547 189° South 401 461 33,800 629 Climbing Chicago Center
Sun 12:49:29 PM 40.6189 -85.6831 191° South 392 451 34,000 97 Climbing Chicago Center
Sun 12:50:31 PM 40.5092 -85.7056 189° South 395 455 34,000  Level Chicago Center
Sun 12:51:33 PM 40.3825 -85.7322 189° South 389 448 34,000  Level Chicago Center
Sun 12:52:35 PM 40.2764 -85.7547 189° South 386 444 34,000  Level Chicago Center
Sun 12:53:38 PM 40.1681 -85.7778 189° South 390 449 34,000  Level Chicago Center
Sun 12:54:09 PM 40.1008 -85.7903 188° South 395 455 34,000  Level Indianapolis Center
Sun 12:55:12 PM 39.9936 -85.8133 189° South 391 450 34,000  Level Indianapolis Center
Sun 12:56:14 PM 39.8850 -85.8367 189° South 392 451 34,000  Level Indianapolis Center
Sun 12:57:16 PM 39.7756 -85.8586 189° South 394 453 34,000  Level Indianapolis Center
Sun 12:58:18 PM 39.6669 -85.8822 190° South 393 452 34,000  Level Indianapolis Center
Sun 12:59:20 PM 39.5567 -85.9047 189° South 396 456 34,000  Level Indianapolis Center
Sun 01:00:22 PM 39.4253 -85.9328 189° South 396 456 34,000  Level Indianapolis Center
Sun 01:01:24 PM 39.3164 -85.9567 190° South 397 457 34,000  Level Indianapolis Center
Sun 01:02:26 PM 39.2064 -85.9811 190° South 401 461 34,000  Level Indianapolis Center
Sun 01:03:28 PM 39.0969 -86.0033 189° South 399 459 34,000  Level Indianapolis Center
Sun 01:04:30 PM 38.9881 -86.0258 189° South 398 458 34,000  Level Indianapolis Center
Sun 01:05:32 PM 38.8692 -86.0519 190° South 399 459 34,000  Level Indianapolis Center
Sun 01:06:34 PM 38.7586 -86.0742 189° South 399 459 34,000  Level Indianapolis Center
Sun 01:07:36 PM 38.6489 -86.0972 189° South 396 456 34,000  Level Indianapolis Center
Sun 01:08:38 PM 38.5383 -86.1181 188° South 397 457 34,000 -194 Level Indianapolis Center
Sun 01:09:40 PM 38.4261 -86.1408 189° South 401 461 33,600 -480 Descending Indianapolis Center
Sun 01:10:43 PM 38.2889 -86.1689 189° South 410 472 33,000 -288 Descending Indianapolis Center
Sun 01:11:45 PM 38.1733 -86.1922 189° South 415 478 33,000  Level Indianapolis Center
Sun 01:12:47 PM 38.0581 -86.2153 189° South 416 479 33,000  Level Indianapolis Center
Sun 01:13:49 PM 37.9431 -86.2394 189° South 415 478 33,000  Level Indianapolis Center
Sun 01:14:51 PM 37.8300 -86.2619 189° South 409 471 33,000  Level Indianapolis Center
Sun 01:15:53 PM 37.7197 -86.2875 190° South 404 465 33,000  Level Indianapolis Center
Sun 01:16:55 PM 37.6083 -86.3081 188° South 399 459 33,000  Level Indianapolis Center
Sun 01:17:44 PM 37.5122 -86.3281 189° South 405 466 33,000  Level Memphis Center
Sun 01:18:44 PM 37.3964 -86.3522 189° South 418 481 33,000  Level Memphis Center
Sun 01:18:59 PM 37.3586 -86.3589 188° South 417 480 33,000  Level Indianapolis Center
Sun 01:19:44 PM 37.2783 -86.3739 188° South 427 491 33,000  Level Memphis Center
Sun 01:20:44 PM 37.1667 -86.3978 190° South 421 484 33,000  Level Memphis Center
Sun 01:21:44 PM 37.0381 -86.4197 188° South 426 490 33,000  Level Memphis Center
Sun 01:22:44 PM 36.9242 -86.4408 188° South 426 490 33,000  Level Memphis Center
Sun 01:23:44 PM 36.8114 -86.4361 178° South 419 482 33,000  Level Memphis Center
Sun 01:24:44 PM 36.6986 -86.4261 176° South 414 476 33,000  Level Memphis Center
Sun 01:25:44 PM 36.5858 -86.4211 178° South 414 476 33,000  Level Memphis Center
Sun 01:26:44 PM 36.4711 -86.4139 177° South 414 476 33,000  Level Memphis Center
Sun 01:27:44 PM 36.3561 -86.4067 177° South 414 476 33,000  Level Memphis Center
Sun 01:28:44 PM 36.2539 -86.4014 178° South 414 476 33,000  Level Memphis Center
Sun 01:29:44 PM 36.1347 -86.3917 176° South 421 484 33,000  Level Memphis Center
Sun 01:30:44 PM 36.0178 -86.3844 177° South 427 491 33,000  Level Memphis Center
Sun 01:31:44 PM 35.8986 -86.3775 177° South 427 491 33,000  Level Memphis Center
Sun 01:32:44 PM 35.7692 -86.3683 177° South 427 491 33,000  Level Memphis Center
Sun 01:35:09 PM 35.5325 -86.1925 149° Southeast 438 504 33,000  Level Atlanta Center
Sun 01:36:09 PM 35.4339 -86.1136 147° Southeast 428 493 33,000  Level Atlanta Center
Sun 01:37:09 PM 35.3369 -86.0372 147° Southeast 422 486 33,000 -300 Level Atlanta Center
Sun 01:38:09 PM 35.2422 -85.9639 148° Southeast 414 476 32,400 -1,050 Descending Atlanta Center
Sun 01:39:09 PM 35.1433 -85.8828 146° Southeast 408 470 30,900 -1,450 Descending Atlanta Center
Sun 01:40:09 PM 35.0525 -85.8122 148° Southeast 403 464 29,500 -1,250 Descending Atlanta Center
Sun 01:41:09 PM 34.9575 -85.7419 149° Southeast 403 464 28,400 -1,050 Descending Atlanta Center
Sun 01:42:09 PM 34.8644 -85.6667 146° Southeast 403 464 27,400 -1,000 Descending Atlanta Center
Sun 01:43:09 PM 34.7736 -85.5939 147° Southeast 403 464 26,400 -992 Descending Atlanta Center
Sun 01:44:10 PM 34.6828 -85.5214 147° Southeast 403 464 25,400 -1,000 Descending Atlanta Center
Sun 01:45:09 PM 34.5917 -85.4569 150° Southeast 398 458 24,400 -1,109 Descending Atlanta Center
Sun 01:46:09 PM 34.5050 -85.3847 146° Southeast 385 443 23,200 -1,850 Descending Atlanta Center
Sun 01:47:09 PM 34.4200 -85.3206 148° Southeast 375 432 20,700 -2,250 Descending Atlanta Center
Sun 01:48:09 PM 34.3475 -85.2614 146° Southeast 365 420 18,700 -2,150 Descending Atlanta Center
Sun 01:49:09 PM 34.2667 -85.2025 149° Southeast 350 403 16,400 -1,950 Descending Atlanta Center
Sun 01:50:09 PM 34.1797 -85.1361 148° Southeast 338 389 14,800 -1,190 Descending Atlanta Center
Sun 01:51:10 PM 34.1136 -85.0575 135° Southeast 333 383 14,000 -550 Descending Atlanta Center
Sun 01:52:09 PM 34.0517 -84.9764 133° Southeast 328 377 13,700 -655 Descending Atlanta Center
Sun 01:53:09 PM 33.9875 -84.8956 134° Southeast 328 377 12,700 -843 Descending Atlanta Center
Sun 01:54:10 PM 33.9253 -84.8175 134° Southeast 328 377 12,000 -350 Descending Atlanta Center
Sun 01:55:09 PM 33.8633 -84.7367 133° Southeast 328 377 12,000  Level Atlanta Center
Sun 01:55:39 PM 33.8333 -84.7000 135° Southeast 325 374 12,000  Level Atlanta TRACON
Sun 01:56:45 PM 33.7667 -84.6167 134° Southeast 321 369 12,000  Level Atlanta TRACON
Sun 01:57:45 PM 33.7333 -84.5167 112° Southeast 327 376 12,000 -450 Level Atlanta TRACON
Sun 01:58:45 PM 33.7333 -84.4167 90° East 271 312 11,100 -1,600 Descending Atlanta TRACON
Sun 01:59:45 PM 33.7333 -84.3333 90° East 259 298 8,800 -2,211 Descending Atlanta TRACON
Sun 02:00:39 PM 33.7333 -84.2667 90° East 244 281 6,900 -2,316 Descending Atlanta TRACON
Sun 02:01:39 PM 33.6833 -84.2167 140° Southeast 239 275 4,400 -1,800 Descending Atlanta TRACON
Sun 02:02:39 PM 33.6500 -84.2667 231° Southwest 200 230 3,300 -1,100 Descending Atlanta TRACON
Sun 02:03:39 PM 33.6500 -84.3333 270° West 191 220 2,200 -952 Descending Atlanta TRACON
Sun 02:04:45 PM 33.6500 -84.4000 270° West 150 173 1,300 -818 Descending Atlanta TRACON

Login

Don't have an account? Register now (free) for customized features, flight alerts, and more!